Aviation Digital Data Service (ADDS)

Output produced by METARs form (2306 UTC 23 May 2022)
found at http://www.aviationweather.gov/metar/data/
 
TAF MWCB 231700Z 2318/2418 12010KT 8000 HZ SCT018 
     PROB30 
     TEMPO 2406/2412 SHRA SCT016
       
TAF MWCR 232300Z 2400/2424 15005KT 9999 VCSH SCT016 SCT035 
     PROB30 
     TEMPO 2411/2416 SHRA SCT018